Time;durP1;ratioP1;P1;durP2;ratioP2;P2;SDS_P1;SDS_P2;PMS_P1;PMS_P2;Temp;Humidity;BMP_temperature;BMP_pressure;BME280_temperature;BME280_humidity;BME280_pressure;Samples;Min_cycle;Max_cycle;Signal;HPM_P1;HPM_P2
2021/03/19 00:01:30;;;;;;;33.72;21.92;;;;;;;;;;6330031;22;20166;-96
2021/03/19 00:04:04;;;;;;;34.75;22.80;;;;;;;;;;6305306;22;20175;-96
2021/03/19 00:06:52;;;;;;;35.05;21.75;;;;;;;;;;6334971;22;20170;-96
2021/03/19 00:12:28;;;;;;;29.65;20.15;;;;;;;;;;6332444;22;20175;-96
2021/03/19 00:14:58;;;;;;;32.20;22.63;;;;;;;;;;6329779;22;20189;-96
2021/03/19 00:17:41;;;;;;;33.28;22.33;;;;;;;;;;6330850;22;20199;-96
2021/03/19 00:20:24;;;;;;;34.28;23.73;;;;;;;;;;6304812;22;20181;-96
2021/03/19 00:22:50;;;;;;;33.05;21.00;;;;;;;;;;6327000;22;20216;-96
2021/03/19 00:25:17;;;;;;;34.08;22.90;;;;;;;;;;6328857;22;20295;-96
2021/03/19 00:27:45;;;;;;;34.13;20.98;;;;;;;;;;6333004;22;20214;-96
2021/03/19 00:30:15;;;;;;;32.83;21.08;;;;;;;;;;6307562;22;20243;-96
2021/03/19 00:32:45;;;;;;;29.77;19.65;;;;;;;;;;6331684;22;20207;-96
2021/03/19 00:35:12;;;;;;;33.20;20.08;;;;;;;;;;6330590;22;20190;-96
2021/03/19 00:37:44;;;;;;;35.22;20.75;;;;;;;;;;6331013;22;20204;-96
2021/03/19 00:40:16;;;;;;;38.25;22.77;;;;;;;;;;6304208;22;20192;-96
2021/03/19 00:42:45;;;;;;;35.63;22.70;;;;;;;;;;6331278;22;20183;-96
2021/03/19 00:45:12;;;;;;;34.90;21.73;;;;;;;;;;6326367;22;20244;-96
2021/03/19 00:47:54;;;;;;;32.60;20.60;;;;;;;;;;6333128;22;20176;-96
2021/03/19 00:50:24;;;;;;;42.13;25.85;;;;;;;;;;6332702;22;20169;-96
2021/03/19 00:52:54;;;;;;;38.28;23.33;;;;;;;;;;6306089;22;20232;-96
2021/03/19 00:58:04;;;;;;;36.53;23.45;;;;;;;;;;6327921;22;20210;-96
2021/03/19 01:00:32;;;;;;;38.05;21.80;;;;;;;;;;6330334;22;20187;-96
2021/03/19 01:03:00;;;;;;;39.13;23.25;;;;;;;;;;6331116;22;20193;-96
2021/03/19 01:08:35;;;;;;;36.97;22.42;;;;;;;;;;6306093;22;20277;-96
2021/03/19 01:11:02;;;;;;;35.15;21.95;;;;;;;;;;6327357;22;20173;-96
2021/03/19 01:13:43;;;;;;;38.50;23.60;;;;;;;;;;6305108;22;20159;-95
2021/03/19 01:16:10;;;;;;;35.05;23.75;;;;;;;;;;6321858;22;20185;-96
2021/03/19 01:18:37;;;;;;;38.30;23.63;;;;;;;;;;6321442;22;20207;-96
2021/03/19 01:21:03;;;;;;;37.05;23.38;;;;;;;;;;6321379;22;20177;-96
2021/03/19 01:24:01;;;;;;;37.67;23.45;;;;;;;;;;6330645;22;20245;-96
2021/03/19 01:37:54;;;;;;;37.80;22.52;;;;;;;;;;6328710;22;20216;-96
2021/03/19 01:40:24;;;;;;;30.27;20.83;;;;;;;;;;6329684;22;20269;-96
2021/03/19 01:42:51;;;;;;;38.20;21.40;;;;;;;;;;6331099;22;20223;-96
2021/03/19 01:45:32;;;;;;;32.60;21.45;;;;;;;;;;6328482;22;20188;-96
2021/03/19 01:48:17;;;;;;;33.78;21.42;;;;;;;;;;6324825;22;20180;-96
2021/03/19 01:51:02;;;;;;;35.50;23.90;;;;;;;;;;6328770;22;20225;-96
2021/03/19 01:53:47;;;;;;;38.22;24.05;;;;;;;;;;6328128;22;20177;-96
2021/03/19 01:56:32;;;;;;;41.63;25.92;;;;;;;;;;6321899;22;20181;-96
2021/03/19 01:59:16;;;;;;;38.55;25.10;;;;;;;;;;6322175;22;20185;-96
2021/03/19 02:02:07;;;;;;;37.67;22.88;;;;;;;;;;6330444;22;20233;-96
2021/03/19 02:04:58;;;;;;;39.42;23.55;;;;;;;;;;6328456;22;20168;-96
2021/03/19 02:07:45;;;;;;;43.95;23.88;;;;;;;;;;6302789;22;20205;-96
2021/03/19 02:10:32;;;;;;;36.50;23.27;;;;;;;;;;6330091;22;20161;-96
2021/03/19 02:16:17;;;;;;;36.35;22.92;;;;;;;;;;6335550;22;20207;-95
2021/03/19 02:19:01;;;;;;;33.85;21.42;;;;;;;;;;6320764;22;20197;-95
2021/03/19 02:21:46;;;;;;;39.80;22.38;;;;;;;;;;6319981;22;20200;-96
2021/03/19 02:24:31;;;;;;;34.17;21.17;;;;;;;;;;6324854;22;20197;-96
2021/03/19 02:27:15;;;;;;;37.50;23.52;;;;;;;;;;6321664;22;20178;-96
2021/03/19 02:30:00;;;;;;;36.45;21.92;;;;;;;;;;6319005;22;20174;-96
2021/03/19 02:32:28;;;;;;;33.45;21.27;;;;;;;;;;6323418;22;20174;-96
2021/03/19 02:34:56;;;;;;;37.50;22.10;;;;;;;;;;6324814;22;20179;-96
2021/03/19 02:37:26;;;;;;;38.92;24.20;;;;;;;;;;6330226;22;20178;-96
2021/03/19 02:39:53;;;;;;;34.55;21.70;;;;;;;;;;6328816;22;20195;-96
2021/03/19 02:42:22;;;;;;;39.85;22.20;;;;;;;;;;6330025;22;20170;-96
2021/03/19 02:44:53;;;;;;;35.15;22.85;;;;;;;;;;6329777;22;20189;-96
2021/03/19 02:53:11;;;;;;;40.70;22.90;;;;;;;;;;6329660;22;20216;-96
2021/03/19 02:55:47;;;;;;;39.38;23.95;;;;;;;;;;6328523;22;20170;-96
2021/03/19 02:58:13;;;;;;;38.33;22.83;;;;;;;;;;6298110;22;20201;-96
2021/03/19 03:00:40;;;;;;;37.38;23.23;;;;;;;;;;6325095;22;20187;-96
2021/03/19 03:03:06;;;;;;;36.72;22.77;;;;;;;;;;6326278;22;20170;-96
2021/03/19 03:05:33;;;;;;;34.35;21.73;;;;;;;;;;6297238;22;20232;-96
2021/03/19 03:07:59;;;;;;;39.08;23.80;;;;;;;;;;6318311;22;20475;-96
2021/03/19 03:10:29;;;;;;;41.45;23.08;;;;;;;;;;6318608;22;20185;-96
2021/03/19 03:12:55;;;;;;;37.15;22.55;;;;;;;;;;6301251;22;20167;-96
2021/03/19 03:15:22;;;;;;;36.47;23.52;;;;;;;;;;6325426;22;20171;-96
2021/03/19 03:17:48;;;;;;;36.22;22.75;;;;;;;;;;6322561;22;20199;-96
2021/03/19 03:20:16;;;;;;;39.90;23.40;;;;;;;;;;6322540;22;20234;-96
2021/03/19 03:22:43;;;;;;;38.03;23.63;;;;;;;;;;6321531;22;20185;-96
2021/03/19 03:25:12;;;;;;;35.30;23.05;;;;;;;;;;6328126;22;20198;-96
2021/03/19 03:27:40;;;;;;;38.17;23.50;;;;;;;;;;6300536;22;20172;-96
2021/03/19 03:30:10;;;;;;;43.17;24.17;;;;;;;;;;6325105;22;20196;-96
2021/03/19 03:35:45;;;;;;;35.72;22.38;;;;;;;;;;6325735;22;20193;-96
2021/03/19 03:38:12;;;;;;;30.67;20.15;;;;;;;;;;6320165;22;20205;-96
2021/03/19 03:40:40;;;;;;;33.58;21.55;;;;;;;;;;6320601;22;20174;-96
2021/03/19 03:43:08;;;;;;;34.47;20.95;;;;;;;;;;6295354;22;20185;-96
2021/03/19 03:45:34;;;;;;;33.97;22.00;;;;;;;;;;6321965;22;20185;-95
2021/03/19 03:48:03;;;;;;;33.70;21.88;;;;;;;;;;6323249;22;20766;-96
2021/03/19 03:50:30;;;;;;;32.78;19.95;;;;;;;;;;6300913;22;20177;-96
2021/03/19 03:52:56;;;;;;;35.75;21.23;;;;;;;;;;6328392;22;20193;-96
2021/03/19 03:55:24;;;;;;;34.35;22.13;;;;;;;;;;6325470;22;20178;-95
2021/03/19 03:57:52;;;;;;;36.58;22.60;;;;;;;;;;6297980;22;20243;-96
2021/03/19 04:00:22;;;;;;;34.60;20.85;;;;;;;;;;6326926;22;20223;-96
2021/03/19 04:03:00;;;;;;;37.05;21.15;;;;;;;;;;6330802;22;20161;-96
2021/03/19 04:05:38;;;;;;;37.63;20.50;;;;;;;;;;6330949;22;20199;-96
2021/03/19 04:08:28;;;;;;;33.10;21.00;;;;;;;;;;6330583;22;20177;-96
2021/03/19 04:10:56;;;;;;;34.03;20.67;;;;;;;;;;6328095;22;20226;-96
2021/03/19 04:13:22;;;;;;;33.33;21.38;;;;;;;;;;6329576;22;20169;-96
2021/03/19 04:15:50;;;;;;;38.40;23.95;;;;;;;;;;6324592;22;20242;-96
2021/03/19 04:18:19;;;;;;;37.05;22.10;;;;;;;;;;6330487;22;20181;-96
2021/03/19 04:21:00;;;;;;;38.88;22.63;;;;;;;;;;6303605;22;20221;-96
2021/03/19 04:23:27;;;;;;;36.55;23.70;;;;;;;;;;6293045;22;20177;-96
2021/03/19 04:25:53;;;;;;;48.33;27.88;;;;;;;;;;6317913;22;20238;-96
2021/03/19 04:28:31;;;;;;;40.63;24.42;;;;;;;;;;6327132;22;20161;-96
2021/03/19 04:31:19;;;;;;;41.88;24.73;;;;;;;;;;6309263;22;20206;-96
2021/03/19 04:54:44;;;;;;;38.58;23.75;;;;;;;;;;6335468;22;20253;-96
2021/03/19 04:59:38;;;;;;;39.60;23.75;;;;;;;;;;6245045;22;20184;-94
2021/03/19 05:04:37;;;;;;;39.20;24.60;;;;;;;;;;6364992;22;20200;-96
2021/03/19 05:07:08;;;;;;;42.58;25.00;;;;;;;;;;6367647;22;20160;-95
2021/03/19 05:12:10;;;;;;;47.95;26.55;;;;;;;;;;6336001;22;20216;-96
2021/03/19 05:14:37;;;;;;;44.10;25.90;;;;;;;;;;6255932;22;20292;-95
2021/03/19 05:32:34;;;;;;;45.35;26.13;;;;;;;;;;6263915;22;20190;-96
2021/03/19 05:35:01;;;;;;;53.25;27.25;;;;;;;;;;6338048;22;20218;-96
2021/03/19 05:37:27;;;;;;;49.58;26.38;;;;;;;;;;6336410;22;20223;-96
2021/03/19 05:39:53;;;;;;;45.63;25.98;;;;;;;;;;6332482;22;20211;-96
2021/03/19 05:42:24;;;;;;;44.67;25.73;;;;;;;;;;6328890;22;20173;-95
2021/03/19 05:44:55;;;;;;;48.15;28.17;;;;;;;;;;6325205;22;20204;-96
2021/03/19 05:47:21;;;;;;;46.88;27.58;;;;;;;;;;6319517;22;20464;-94
2021/03/19 05:49:54;;;;;;;45.78;27.10;;;;;;;;;;6322235;22;20253;-95
2021/03/19 05:52:24;;;;;;;47.83;25.90;;;;;;;;;;6326711;22;20229;-96
2021/03/19 05:54:52;;;;;;;42.72;24.60;;;;;;;;;;6322233;22;20185;-96
2021/03/19 05:57:22;;;;;;;47.67;27.15;;;;;;;;;;6320674;22;20198;-95
2021/03/19 05:59:49;;;;;;;45.13;26.88;;;;;;;;;;6325373;22;20206;-96
2021/03/19 06:02:19;;;;;;;45.85;26.85;;;;;;;;;;6299184;22;20183;-96
2021/03/19 06:11:09;;;;;;;52.28;30.75;;;;;;;;;;6330436;22;20175;-96
2021/03/19 06:30:10;;;;;;;43.53;27.40;;;;;;;;;;6289866;22;20242;-96
2021/03/19 06:33:01;;;;;;;50.42;28.67;;;;;;;;;;6329061;22;20172;-96
2021/03/19 06:35:33;;;;;;;49.13;29.13;;;;;;;;;;6295291;22;20231;-96
2021/03/19 06:38:18;;;;;;;48.95;29.67;;;;;;;;;;6321479;22;20197;-96
2021/03/19 06:40:47;;;;;;;55.63;32.72;;;;;;;;;;6317286;22;20182;-95
2021/03/19 06:43:17;;;;;;;61.30;36.05;;;;;;;;;;6309169;22;20189;-94
2021/03/19 06:45:48;;;;;;;55.05;30.95;;;;;;;;;;6309140;22;20185;-94
2021/03/19 06:48:31;;;;;;;63.10;36.10;;;;;;;;;;6314061;22;20170;-95
2021/03/19 06:50:57;;;;;;;51.60;29.70;;;;;;;;;;6312620;22;20177;-95
2021/03/19 06:53:24;;;;;;;51.22;30.00;;;;;;;;;;6313951;22;20184;-93
2021/03/19 06:55:52;;;;;;;50.80;29.90;;;;;;;;;;6311843;22;20173;-94
2021/03/19 06:58:32;;;;;;;53.30;31.65;;;;;;;;;;6317034;22;20217;-94
2021/03/19 07:00:59;;;;;;;53.47;31.05;;;;;;;;;;6320010;22;20176;-94
2021/03/19 07:03:36;;;;;;;69.95;35.15;;;;;;;;;;6320932;22;20173;-94
2021/03/19 07:06:23;;;;;;;65.00;34.58;;;;;;;;;;6320417;22;20220;-94
2021/03/19 07:08:53;;;;;;;58.17;34.10;;;;;;;;;;6322945;22;20180;-95
2021/03/19 07:11:30;;;;;;;51.17;30.60;;;;;;;;;;6321320;22;20227;-93
2021/03/19 07:14:02;;;;;;;46.70;29.05;;;;;;;;;;6320874;22;20199;-94
2021/03/19 07:16:34;;;;;;;40.72;26.23;;;;;;;;;;6319101;22;20188;-95
2021/03/19 07:19:11;;;;;;;46.25;25.15;;;;;;;;;;6319373;22;20198;-95
2021/03/19 07:21:49;;;;;;;44.90;27.40;;;;;;;;;;6316990;22;20188;-93
2021/03/19 07:24:19;;;;;;;46.50;29.27;;;;;;;;;;6320406;22;20180;-93
2021/03/19 07:29:51;;;;;;;34.53;22.15;;;;;;;;;;6323191;22;20249;-93
2021/03/19 07:32:41;;;;;;;39.67;23.85;;;;;;;;;;6319038;22;20169;-94
2021/03/19 07:35:28;;;;;;;35.72;22.02;;;;;;;;;;6314183;22;20254;-96
2021/03/19 07:38:05;;;;;;;33.83;21.98;;;;;;;;;;6310326;22;20193;-95
2021/03/19 07:40:44;;;;;;;32.05;20.08;;;;;;;;;;6321579;22;20225;-96
2021/03/19 07:46:05;;;;;;;31.73;20.20;;;;;;;;;;6316369;22;20231;-95
2021/03/19 07:48:59;;;;;;;33.42;21.50;;;;;;;;;;6321092;22;20174;-95
2021/03/19 08:08:53;;;;;;;33.65;20.95;;;;;;;;;;6276236;22;20235;-95
2021/03/19 08:34:34;;;;;;;23.77;17.00;;;;;;;;;;6262153;22;20463;-96
2021/03/19 08:37:00;;;;;;;26.27;18.30;;;;;;;;;;6323631;22;20406;-96
2021/03/19 08:42:17;;;;;;;25.63;17.13;;;;;;;;;;6317687;22;20458;-96
2021/03/19 08:44:45;;;;;;;23.13;16.93;;;;;;;;;;6319255;22;20404;-95
2021/03/19 08:47:15;;;;;;;25.63;15.50;;;;;;;;;;6321818;22;20411;-96
2021/03/19 08:49:47;;;;;;;23.00;17.87;;;;;;;;;;6319096;22;20423;-96
2021/03/19 08:52:22;;;;;;;23.67;16.50;;;;;;;;;;6322173;22;20423;-94
2021/03/19 08:55:08;;;;;;;23.60;18.20;;;;;;;;;;6320359;22;20415;-94
2021/03/19 08:57:35;;;;;;;24.70;16.93;;;;;;;;;;6324016;22;20452;-93
2021/03/19 09:00:05;;;;;;;20.23;15.73;;;;;;;;;;6325396;22;20410;-95
2021/03/19 09:02:47;;;;;;;25.53;18.93;;;;;;;;;;6299236;22;20403;-95
2021/03/19 09:05:44;;;;;;;23.37;18.27;;;;;;;;;;6299737;22;20419;-95
2021/03/19 09:08:25;;;;;;;27.43;19.60;;;;;;;;;;6324857;22;20408;-96
2021/03/19 09:11:11;;;;;;;29.23;18.17;;;;;;;;;;6319297;22;20415;-93
2021/03/19 09:13:38;;;;;;;23.57;18.57;;;;;;;;;;6304671;22;20400;-95
2021/03/19 09:18:47;;;;;;;20.97;15.77;;;;;;;;;;6220770;22;20452;-93
2021/03/19 09:21:31;;;;;;;26.40;17.40;;;;;;;;;;6332373;22;20416;-94
2021/03/19 09:24:14;;;;;;;21.80;16.73;;;;;;;;;;6332697;22;20956;-95
2021/03/19 09:27:36;;;;;;;24.30;17.93;;;;;;;;;;6306665;22;20402;-95
2021/03/19 09:33:01;;;;;;;23.53;17.47;;;;;;;;;;6316872;22;20461;-94
2021/03/19 09:35:47;;;;;;;23.97;17.30;;;;;;;;;;6321051;22;20452;-96
2021/03/19 09:44:26;;;;;;;22.03;16.30;;;;;;;;;;6328612;22;20400;-95
2021/03/19 09:46:58;;;;;;;22.50;16.77;;;;;;;;;;6323473;22;20439;-94
2021/03/19 09:49:26;;;;;;;22.30;16.07;;;;;;;;;;6320657;22;20426;-93
2021/03/19 09:52:23;;;;;;;20.07;15.47;;;;;;;;;;6314968;22;20412;-92
2021/03/19 09:55:06;;;;;;;20.57;16.00;;;;;;;;;;6320096;22;20400;-95
2021/03/19 09:57:41;;;;;;;21.40;16.17;;;;;;;;;;6319977;22;20455;-93
2021/03/19 10:00:47;;;;;;;17.83;14.50;;;;;;;;;;6321171;22;20407;-95
2021/03/19 10:05:59;;;;;;;19.43;14.47;;;;;;;;;;6320586;22;20431;-92
2021/03/19 10:08:27;;;;;;;16.83;13.37;;;;;;;;;;6317342;22;20438;-92
2021/03/19 10:11:02;;;;;;;21.63;16.13;;;;;;;;;;6295175;22;20454;-94
2021/03/19 10:13:28;;;;;;;19.60;14.47;;;;;;;;;;6318861;22;20965;-93
2021/03/19 10:15:56;;;;;;;18.07;15.33;;;;;;;;;;6321360;22;20499;-93
2021/03/19 10:18:24;;;;;;;20.03;14.90;;;;;;;;;;6318365;22;20451;-91
2021/03/19 10:20:54;;;;;;;25.63;15.60;;;;;;;;;;6317451;22;20428;-94
2021/03/19 10:23:27;;;;;;;22.03;15.30;;;;;;;;;;6317533;22;20404;-94
2021/03/19 10:26:03;;;;;;;18.70;14.17;;;;;;;;;;6317214;22;20408;-93
2021/03/19 10:28:30;;;;;;;19.07;14.60;;;;;;;;;;6321602;22;20476;-93
2021/03/19 10:31:02;;;;;;;18.37;14.93;;;;;;;;;;6329140;22;20415;-95
2021/03/19 10:33:35;;;;;;;17.10;13.20;;;;;;;;;;6295148;22;20406;-94
2021/03/19 10:36:03;;;;;;;15.10;13.47;;;;;;;;;;6319693;22;20463;-93
2021/03/19 10:38:33;;;;;;;14.07;12.50;;;;;;;;;;6290354;22;20455;-93
2021/03/19 10:41:00;;;;;;;15.17;13.07;;;;;;;;;;6320135;22;20412;-95
2021/03/19 10:43:28;;;;;;;19.33;14.60;;;;;;;;;;6321176;22;20408;-94
2021/03/19 10:45:56;;;;;;;17.00;13.67;;;;;;;;;;6321668;22;20452;-92
2021/03/19 10:48:26;;;;;;;17.03;14.50;;;;;;;;;;6325196;22;20385;-93
2021/03/19 10:50:57;;;;;;;18.90;14.50;;;;;;;;;;6323731;22;20405;-96
2021/03/19 10:53:28;;;;;;;17.07;14.17;;;;;;;;;;6323042;22;20404;-95
2021/03/19 10:56:03;;;;;;;17.33;13.70;;;;;;;;;;6321460;22;20414;-96
2021/03/19 10:58:34;;;;;;;17.63;13.47;;;;;;;;;;6320703;22;20448;-95
2021/03/19 11:01:03;;;;;;;17.17;13.90;;;;;;;;;;6320243;22;20407;-94
2021/03/19 11:03:34;;;;;;;17.03;13.17;;;;;;;;;;6320749;22;20426;-96
2021/03/19 11:06:02;;;;;;;16.10;12.83;;;;;;;;;;6327615;22;20406;-95
2021/03/19 11:08:29;;;;;;;29.17;14.73;;;;;;;;;;6299370;22;20422;-92
2021/03/19 11:10:55;;;;;;;16.70;13.57;;;;;;;;;;6321413;22;20414;-94
2021/03/19 11:13:34;;;;;;;15.37;13.63;;;;;;;;;;6327943;22;20429;-95
2021/03/19 11:16:03;;;;;;;17.97;12.53;;;;;;;;;;6322347;22;20421;-94
2021/03/19 11:18:33;;;;;;;16.20;13.23;;;;;;;;;;6323948;22;20482;-94
2021/03/19 11:21:02;;;;;;;19.70;13.13;;;;;;;;;;6319185;22;20402;-95
2021/03/19 11:23:50;;;;;;;16.03;12.37;;;;;;;;;;6323911;22;20410;-93
2021/03/19 11:26:26;;;;;;;15.20;12.70;;;;;;;;;;6294711;22;20489;-95
2021/03/19 11:29:06;;;;;;;14.63;11.80;;;;;;;;;;6328984;22;21021;-95
2021/03/19 11:31:32;;;;;;;18.33;12.60;;;;;;;;;;6305868;22;20395;-96
2021/03/19 11:36:46;;;;;;;16.30;12.73;;;;;;;;;;6324535;22;20483;-94
2021/03/19 11:39:15;;;;;;;14.17;11.73;;;;;;;;;;6295864;22;20446;-95
2021/03/19 11:41:43;;;;;;;18.10;11.13;;;;;;;;;;6323871;22;20420;-94
2021/03/19 11:44:31;;;;;;;13.00;11.60;;;;;;;;;;6332497;22;20475;-96
2021/03/19 11:46:59;;;;;;;12.87;11.50;;;;;;;;;;6329088;22;20408;-95
2021/03/19 11:49:25;;;;;;;15.97;12.13;;;;;;;;;;6299605;22;20419;-95
2021/03/19 11:51:51;;;;;;;17.10;12.17;;;;;;;;;;6323826;22;20404;-94
2021/03/19 11:54:18;;;;;;;13.67;11.77;;;;;;;;;;6323988;22;20502;-94
2021/03/19 11:56:49;;;;;;;14.73;13.00;;;;;;;;;;6326298;22;20400;-96
2021/03/19 11:59:15;;;;;;;14.07;11.53;;;;;;;;;;6321378;22;21166;-93
2021/03/19 12:01:41;;;;;;;13.83;11.10;;;;;;;;;;6319073;22;20396;-95
2021/03/19 12:04:07;;;;;;;13.77;12.27;;;;;;;;;;6318783;22;20400;-94
2021/03/19 12:06:35;;;;;;;13.33;10.97;;;;;;;;;;6315124;22;20408;-94
2021/03/19 12:09:22;;;;;;;12.07;10.37;;;;;;;;;;6318916;22;20482;-96
2021/03/19 12:11:48;;;;;;;15.23;11.20;;;;;;;;;;6318390;22;20821;-94
2021/03/19 12:14:17;;;;;;;16.60;11.67;;;;;;;;;;6318894;22;20400;-94
2021/03/19 12:16:44;;;;;;;14.73;12.90;;;;;;;;;;6316789;22;21306;-93
2021/03/19 12:19:10;;;;;;;11.93;10.23;;;;;;;;;;6315556;22;20501;-93
2021/03/19 12:21:36;;;;;;;12.17;10.10;;;;;;;;;;6314308;22;20404;-94
2021/03/19 12:24:02;;;;;;;11.70;9.50;;;;;;;;;;6315564;22;20504;-94
2021/03/19 12:26:29;;;;;;;10.40;9.40;;;;;;;;;;6318940;22;20416;-96
2021/03/19 12:28:55;;;;;;;9.60;8.60;;;;;;;;;;6321246;22;20403;-95
2021/03/19 12:31:21;;;;;;;9.80;8.50;;;;;;;;;;6321932;22;20445;-94
2021/03/19 12:33:47;;;;;;;8.33;7.50;;;;;;;;;;6318350;22;20411;-95
2021/03/19 12:36:14;;;;;;;9.77;8.40;;;;;;;;;;6317238;22;20432;-96
2021/03/19 12:38:40;;;;;;;9.37;8.27;;;;;;;;;;6318795;22;20444;-95
2021/03/19 12:41:06;;;;;;;10.00;8.83;;;;;;;;;;6296407;22;20400;-95
2021/03/19 12:43:33;;;;;;;8.70;7.90;;;;;;;;;;6322386;22;20419;-93
2021/03/19 12:46:07;;;;;;;9.17;8.27;;;;;;;;;;6320581;22;20404;-95
2021/03/19 12:48:33;;;;;;;11.43;8.70;;;;;;;;;;6320833;22;20416;-95
2021/03/19 12:50:59;;;;;;;9.37;8.37;;;;;;;;;;6317674;22;20415;-95
2021/03/19 12:53:25;;;;;;;9.40;8.40;;;;;;;;;;6318852;22;20408;-95
2021/03/19 12:55:51;;;;;;;9.60;8.60;;;;;;;;;;6318819;22;20419;-92
2021/03/19 12:58:19;;;;;;;9.77;8.83;;;;;;;;;;6317744;22;20763;-96
2021/03/19 13:00:47;;;;;;;8.17;7.37;;;;;;;;;;6316897;22;20638;-93
2021/03/19 13:03:13;;;;;;;10.23;7.90;;;;;;;;;;6316573;22;20414;-93
2021/03/19 13:05:41;;;;;;;8.90;8.00;;;;;;;;;;6320350;22;21163;-94
2021/03/19 13:08:07;;;;;;;8.30;7.50;;;;;;;;;;6319636;22;20404;-95
2021/03/19 13:10:34;;;;;;;8.33;7.60;;;;;;;;;;6321489;22;20419;-93
2021/03/19 13:13:00;;;;;;;8.33;7.53;;;;;;;;;;6320552;22;20416;-94
2021/03/19 13:15:27;;;;;;;10.77;7.43;;;;;;;;;;6320160;22;20894;-94
2021/03/19 13:17:56;;;;;;;9.17;8.27;;;;;;;;;;6321252;22;20446;-91
2021/03/19 13:20:23;;;;;;;8.93;8.13;;;;;;;;;;6319026;22;20408;-94
2021/03/19 13:22:49;;;;;;;8.63;7.13;;;;;;;;;;6319393;22;20416;-94
2021/03/19 13:25:16;;;;;;;9.27;7.70;;;;;;;;;;6318663;22;20458;-94
2021/03/19 13:27:43;;;;;;;9.50;8.50;;;;;;;;;;6324704;22;20404;-95
2021/03/19 13:30:12;;;;;;;10.57;8.03;;;;;;;;;;6320585;22;20396;-94
2021/03/19 13:32:38;;;;;;;10.80;8.00;;;;;;;;;;6316739;22;20416;-94
2021/03/19 13:35:06;;;;;;;8.10;7.30;;;;;;;;;;6317867;22;20441;-95
2021/03/19 13:37:33;;;;;;;8.27;7.47;;;;;;;;;;6317594;22;20408;-93
2021/03/19 13:39:59;;;;;;;8.23;6.83;;;;;;;;;;6309211;22;20418;-93
2021/03/19 13:42:25;;;;;;;10.40;8.50;;;;;;;;;;6310293;22;20442;-94
2021/03/19 13:44:51;;;;;;;9.07;7.77;;;;;;;;;;6307506;22;20415;-95
2021/03/19 13:47:17;;;;;;;8.63;7.83;;;;;;;;;;6305690;22;20423;-94
2021/03/19 13:49:43;;;;;;;9.33;8.43;;;;;;;;;;6306276;22;20410;-94
2021/03/19 13:52:10;;;;;;;8.93;8.00;;;;;;;;;;6301011;22;20932;-94
2021/03/19 13:54:36;;;;;;;8.47;7.57;;;;;;;;;;6308151;22;20416;-94
2021/03/19 13:57:03;;;;;;;8.20;7.40;;;;;;;;;;6312438;22;20438;-96
2021/03/19 13:59:29;;;;;;;9.03;8.13;;;;;;;;;;6320366;22;21083;-94
2021/03/19 14:01:55;;;;;;;8.07;7.37;;;;;;;;;;6321186;22;20407;-93
2021/03/19 14:04:22;;;;;;;8.23;7.43;;;;;;;;;;6324441;22;20416;-95
2021/03/19 14:06:49;;;;;;;7.43;6.63;;;;;;;;;;6312137;22;20402;-92
2021/03/19 14:09:16;;;;;;;7.53;6.83;;;;;;;;;;6312445;22;20431;-94
2021/03/19 14:11:42;;;;;;;8.73;7.83;;;;;;;;;;6311233;22;20409;-93
2021/03/19 14:14:08;;;;;;;8.20;7.40;;;;;;;;;;6314974;22;21959;-95
2021/03/19 14:16:34;;;;;;;9.20;8.33;;;;;;;;;;6315079;22;20403;-95
2021/03/19 14:19:00;;;;;;;8.93;8.00;;;;;;;;;;6316702;22;20451;-93
2021/03/19 14:21:26;;;;;;;7.53;6.83;;;;;;;;;;6318030;22;20415;-94
2021/03/19 14:23:52;;;;;;;8.33;7.63;;;;;;;;;;6311300;22;20423;-94
2021/03/19 14:26:20;;;;;;;8.73;7.93;;;;;;;;;;6310948;22;20407;-96
2021/03/19 14:28:46;;;;;;;9.03;8.13;;;;;;;;;;6316932;22;20422;-96
2021/03/19 14:31:13;;;;;;;7.80;7.00;;;;;;;;;;6318273;22;20908;-94
2021/03/19 14:33:40;;;;;;;8.00;7.20;;;;;;;;;;6312374;22;20473;-95
2021/03/19 14:36:06;;;;;;;8.20;7.40;;;;;;;;;;6307608;22;20438;-95
2021/03/19 14:38:34;;;;;;;8.80;7.30;;;;;;;;;;6307467;22;20449;-95
2021/03/19 14:41:00;;;;;;;8.00;7.20;;;;;;;;;;6311166;22;20447;-96
2021/03/19 14:43:27;;;;;;;8.43;7.50;;;;;;;;;;6310244;22;20444;-96
2021/03/19 14:45:53;;;;;;;7.73;6.90;;;;;;;;;;6312749;22;20434;-95
2021/03/19 14:48:21;;;;;;;9.37;7.70;;;;;;;;;;6313917;22;20418;-96
2021/03/19 14:50:48;;;;;;;9.40;8.50;;;;;;;;;;6318873;22;20410;-94
2021/03/19 14:53:14;;;;;;;8.80;7.67;;;;;;;;;;6317821;22;20397;-95
2021/03/19 14:55:40;;;;;;;8.50;7.60;;;;;;;;;;6319659;22;20448;-95
2021/03/19 14:58:08;;;;;;;8.90;8.00;;;;;;;;;;6317445;22;20486;-95
2021/03/19 15:00:37;;;;;;;8.37;6.90;;;;;;;;;;6316029;22;20405;-95
2021/03/19 15:03:03;;;;;;;7.40;6.70;;;;;;;;;;6288602;22;20447;-94
2021/03/19 15:05:29;;;;;;;8.07;7.30;;;;;;;;;;6319608;22;20413;-94
2021/03/19 15:07:55;;;;;;;8.50;7.67;;;;;;;;;;6318436;22;20410;-94
2021/03/19 15:10:22;;;;;;;9.93;8.97;;;;;;;;;;6318601;22;20411;-94
2021/03/19 15:12:48;;;;;;;8.47;7.67;;;;;;;;;;6318612;22;20436;-96
2021/03/19 15:15:14;;;;;;;10.00;8.10;;;;;;;;;;6315548;22;20416;-96
2021/03/19 15:17:41;;;;;;;8.63;7.83;;;;;;;;;;6312298;22;20860;-96
2021/03/19 15:20:10;;;;;;;8.40;7.60;;;;;;;;;;6315129;22;20409;-95
2021/03/19 15:22:37;;;;;;;8.73;7.73;;;;;;;;;;6316616;22;20410;-93
2021/03/19 15:25:03;;;;;;;9.30;8.40;;;;;;;;;;6314941;22;20898;-94
2021/03/19 15:27:29;;;;;;;9.87;7.83;;;;;;;;;;6317602;22;20408;-95
2021/03/19 15:29:56;;;;;;;11.63;8.73;;;;;;;;;;6315994;22;20410;-93
2021/03/19 15:32:22;;;;;;;9.77;8.77;;;;;;;;;;6318064;22;20413;-93
2021/03/19 15:34:49;;;;;;;8.40;7.60;;;;;;;;;;6315392;22;20437;-93
2021/03/19 15:37:15;;;;;;;10.20;8.97;;;;;;;;;;6316591;22;20411;-93
2021/03/19 15:39:41;;;;;;;10.60;9.13;;;;;;;;;;6321300;22;20476;-93
2021/03/19 15:42:08;;;;;;;11.27;9.47;;;;;;;;;;6317699;22;20405;-95
2021/03/19 15:44:34;;;;;;;14.57;10.70;;;;;;;;;;6316437;22;20413;-93
2021/03/19 15:47:00;;;;;;;11.60;9.90;;;;;;;;;;6312781;22;20411;-94
2021/03/19 15:49:26;;;;;;;15.53;10.50;;;;;;;;;;6311422;22;20409;-95
2021/03/19 15:51:53;;;;;;;16.77;11.10;;;;;;;;;;6307566;22;20445;-95
2021/03/19 15:54:19;;;;;;;12.63;10.93;;;;;;;;;;6313422;22;20414;-94
2021/03/19 15:56:45;;;;;;;12.57;11.27;;;;;;;;;;6310703;22;20408;-95
2021/03/19 15:59:11;;;;;;;11.33;10.23;;;;;;;;;;6312105;22;20440;-95
2021/03/19 16:01:37;;;;;;;12.93;9.60;;;;;;;;;;6311168;22;20470;-95
2021/03/19 16:04:03;;;;;;;11.60;9.40;;;;;;;;;;6316090;22;20429;-95
2021/03/19 16:06:29;;;;;;;13.00;9.43;;;;;;;;;;6317323;22;20401;-94
2021/03/19 16:08:56;;;;;;;10.40;9.40;;;;;;;;;;6317124;22;20442;-96
2021/03/19 16:11:23;;;;;;;10.90;8.70;;;;;;;;;;6317006;22;20406;-96
2021/03/19 16:13:49;;;;;;;12.83;10.37;;;;;;;;;;6318598;22;20406;-94
2021/03/19 16:16:16;;;;;;;15.43;10.97;;;;;;;;;;6315534;22;20471;-95
2021/03/19 16:18:42;;;;;;;12.20;10.23;;;;;;;;;;6318616;22;20493;-95
2021/03/19 16:21:09;;;;;;;14.40;10.37;;;;;;;;;;6316632;22;20411;-93
2021/03/19 16:23:35;;;;;;;11.97;10.23;;;;;;;;;;6290058;22;20412;-95
2021/03/19 16:26:02;;;;;;;13.70;9.90;;;;;;;;;;6318231;22;20414;-95
2021/03/19 16:28:28;;;;;;;12.40;11.00;;;;;;;;;;6318409;22;20398;-95
2021/03/19 16:30:56;;;;;;;12.50;10.63;;;;;;;;;;6320405;22;20467;-95
2021/03/19 16:33:22;;;;;;;13.20;11.20;;;;;;;;;;6320197;22;20407;-95
2021/03/19 16:35:49;;;;;;;16.23;13.40;;;;;;;;;;6321475;22;20427;-95
2021/03/19 16:38:18;;;;;;;15.23;13.63;;;;;;;;;;6319347;22;20578;-95
2021/03/19 16:40:45;;;;;;;17.20;14.13;;;;;;;;;;6322604;22;20443;-94
2021/03/19 16:43:12;;;;;;;20.70;14.60;;;;;;;;;;6322134;22;20399;-95
2021/03/19 16:45:39;;;;;;;19.20;15.50;;;;;;;;;;6321008;22;20966;-95
2021/03/19 16:48:06;;;;;;;23.63;16.40;;;;;;;;;;6320081;22;20873;-95
2021/03/19 16:50:33;;;;;;;22.23;15.87;;;;;;;;;;6319182;22;20418;-95
2021/03/19 16:53:00;;;;;;;21.87;15.30;;;;;;;;;;6316532;22;20412;-94
2021/03/19 16:55:29;;;;;;;21.53;15.47;;;;;;;;;;6320698;22;20877;-94
2021/03/19 16:57:55;;;;;;;22.97;15.40;;;;;;;;;;6316141;22;20483;-94
2021/03/19 17:00:24;;;;;;;19.27;14.37;;;;;;;;;;6318590;22;21121;-96
2021/03/19 17:02:50;;;;;;;17.90;14.40;;;;;;;;;;6318589;22;20408;-94
2021/03/19 17:05:16;;;;;;;23.23;14.03;;;;;;;;;;6320427;22;20465;-93
2021/03/19 17:07:44;;;;;;;21.73;13.80;;;;;;;;;;6321996;22;20425;-93
2021/03/19 17:10:12;;;;;;;18.03;13.50;;;;;;;;;;6322458;22;20466;-94
2021/03/19 17:12:38;;;;;;;19.20;15.80;;;;;;;;;;6324056;22;20492;-95
2021/03/19 17:15:05;;;;;;;19.43;16.10;;;;;;;;;;6323212;22;20457;-95
2021/03/19 17:17:32;;;;;;;43.67;31.23;;;;;;;;;;6325139;22;20426;-95
2021/03/19 17:19:58;;;;;;;24.43;18.43;;;;;;;;;;6321387;22;20476;-93
2021/03/19 17:22:24;;;;;;;18.60;14.20;;;;;;;;;;6318290;22;20404;-92
2021/03/19 17:24:50;;;;;;;21.33;14.90;;;;;;;;;;6318308;22;20408;-94
2021/03/19 17:27:17;;;;;;;20.10;14.50;;;;;;;;;;6318311;22;20436;-94
2021/03/19 17:29:43;;;;;;;22.03;14.80;;;;;;;;;;6317612;22;20469;-94